Terminal Aerodrome Forecast
Issued by NWS

Home | Current Version | Previous Version | Text Only | Print | Product List | Glossary On
Versions: 1 2 3 4 5 6 7 8 9 10 11 12 13 14 15 16 17 18 19 20 21 22
000
FTUS45 KVEF 280200 AAC
TAFHND
TAF AMD
KHND 280228Z 2802/2824 16012G22KT 2SM TSRA BKN090CB
     FM280330 18011KT P6SM VCTS SCT100CB
     FM280600 VRB06KT P6SM VCSH SCT120
     FM280700 18009KT P6SM SCT120
     FM281900 16011KT P6SM VCTS SCT100CB=

USA.gov is the U.S. government's official web portal to all federal, state and local government web resources and services.